ADDS METAR Data INFO
IDs: Format: Raw Decoded Include TAF

Data at: 0754 UTC 17 Oct 2017

KMTO 170653Z AUTO 19006KT 10SM CLR 09/04 A3028 RMK AO2 SLP254 T00940039
KMTO 170553Z AUTO 20006KT 10SM CLR 10/04 A3028 RMK AO2 SLP255 T01000039 10122 20100 401780033 58003
KMTO 170453Z AUTO 20006KT 10SM CLR 11/04 A3028 RMK AO2 SLP255 T01060044
KMTO 170353Z AUTO 20005KT 10SM CLR 11/04 A3030 RMK AO2 SLP259 T01060044
KMTO 170253Z AUTO 20005KT 10SM CLR 11/04 A3029 RMK AO2 SLP258 T01110044 53006
KMTO 170153Z AUTO 18005KT 10SM CLR 12/05 A3028 RMK AO2 SLP254 T01170050
KMTO 170053Z AUTO 19005KT 10SM CLR 12/06 A3028 RMK AO2 SLP257 T01170061
KMTO 162353Z AUTO 20003KT 10SM CLR 12/07 A3027 RMK AO2 SLP253 T01220067 10178 20117 56006
KMTO 162253Z AUTO 22003KT 10SM CLR 15/07 A3028 RMK AO2 SLP255 T01500067
KMTO 162153Z AUTO 23006KT 10SM CLR 17/03 A3028 RMK AO2 SLP255 T01670028
KMTO 162053Z AUTO 22006KT 10SM CLR 17/03 A3029 RMK AO2 SLP259 T01720033 56020
KMTO 161953Z AUTO 33005KT 10SM CLR 17/03 A3031 RMK AO2 SLP263 T01720028
KMTO 161853Z AUTO 30007KT 10SM FEW055 17/04 A3032 RMK AO2 SLP270 T01670044
KMTO 161753Z AUTO 30006KT 10SM CLR 16/04 A3035 RMK AO2 SLP278 T01610044 10161 20039 58010
KMTO 161653Z AUTO 28007KT 10SM CLR 15/04 A3037 RMK AO2 SLP285 T01500044
KMTO 161553Z AUTO VRB06KT 10SM CLR 13/04 A3037 RMK AO2 SLP285 T01330039
KMTO 161453Z AUTO VRB04KT 10SM CLR 12/07 A3038 RMK AO2 SLP289 T01170067 51015
KMTO 161353Z AUTO 30006KT 10SM CLR 08/07 A3037 RMK AO2 SLP286 T00830067
KMTO 161253Z AUTO 29004KT 10SM CLR 06/05 A3035 RMK AO2 SLP281 T00560050 $
KMTO 161153Z AUTO 28004KT 10SM CLR 04/04 A3034 RMK AO2 SLP276 70003 T00390039 10072 20033 53011 $
KMTO 161053Z AUTO 29005KT 10SM CLR 04/04 A3033 RMK AO2 SLP272 T00390039 $
KMTO 160953Z AUTO 29005KT 10SM CLR 04/04 A3031 RMK AO2 SLP268 T00390039 $
KMTO 160853Z AUTO 29006KT 10SM CLR 04/04 A3030 RMK AO2 SLP264 T00440039 51006 $
KMTO 160753Z AUTO 28004KT 10SM CLR 06/04 A3030 RMK AO2 SLP261 T00610044 $
KMTO 160653Z AUTO 30006KT 10SM FEW044 06/04 A3030 RMK AO2 SLP262 T00560044 $
KMTO 160553Z AUTO 31005KT 10SM BKN045 07/06 A3029 RMK AO2 SLP258 T00670056 10122 20067 402220067 50004 $
KMTO 160453Z AUTO 32007KT 10SM OVC045 11/06 A3029 RMK AO2 SLP257 T01060061 $
KMTO 160353Z AUTO 32007KT 10SM OVC042 11/06 A3029 RMK AO2 SLP257 T01110061 $
KMTO 160253Z AUTO 32010KT 10SM OVC042 11/06 A3027 RMK AO2 SLP252 T01110061 51019 $
KMTO 160153Z AUTO 32010KT 10SM OVC039 12/06 A3026 RMK AO2 SLP247 T01170061 $
KMTO 160053Z AUTO 34011KT 10SM OVC038 12/06 A3025 RMK AO2 SLP241 T01170056 $
KMTO 152353Z AUTO 32015KT 10SM OVC038 12/06 A3022 RMK AO2 SLP231 T01220056 10150 20122 51021 $
KMTO 152253Z AUTO 32015KT 10SM OVC041 12/06 A3020 RMK AO2 SLP224 T01220061 $
KMTO 152153Z AUTO 32017G24KT 10SM BKN038 13/06 A3017 RMK AO2 PK WND 33026/2059 SLP216 T01330061 $
KMTO 152053Z AUTO 31015G25KT 10SM BKN038 14/07 A3015 RMK AO2 PK WND 32027/2020 SLP208 T01390067 53005 $